WXM80 ListenWXM80 Stop

You find our weather info also at:

UK Metoffice

WeatherCloud

Weather Underground

Northeastern Weather Network

AWEKAS

Citizen Weather Observer Program (CWOP)

HAMweather, WeatherForYou, PWS Weather


Weather Underground History page Text

Daily Summary for April 4, 2017 Units:  Metric    English   Both
« Previous Day
Next Day »
Daily Weekly Monthly Yearly Custom
  High: Low: Average:
Temperature: 11.4 °C 5.8 °C 7.8 °C
Dew Point: 11.1 °C 1.6 °C 6.9 °C
Humidity: 98 % 53 % 94 %
Wind Speed: 19 km/h 0 km/h 7.1 km/h
Wind Gust: 31.5 km/h - -
Wind:- - East
Pressure: 1011.4 hPa 1000.2 hPa -
Precipitation: 0 mm    
Historical Graphs
 
 
Tabular Data for April 4, 2017
Time Temperature Dew Point Pressure Wind Wind Speed Wind Gust Humidity Rainfall Rate (Hourly)
00:01 10.8 °C 1.6 °C 1011.4 hPa SE 3.7 km/h 11.1 km/h 53 % 0 mm
00:02 10.8 °C 1.6 °C 1011.4 hPa SE 2.7 km/h 6.4 km/h 53 % 0 mm
00:07 10.8 °C 1.6 °C 1011.1 hPa SE 3.9 km/h 5.6 km/h 53 % 0 mm
00:12 10.8 °C 1.9 °C 1011.1 hPa SE 1.4 km/h 4.8 km/h 54 % 0 mm
00:17 10.8 °C 2.7 °C 1011.1 hPa SSE 0.5 km/h 5.6 km/h 57 % 0 mm
00:22 10.8 °C 2.9 °C 1010.7 hPa East 3.5 km/h 9.3 km/h 58 % 0 mm
00:23 10.8 °C 2.9 °C 1010.7 hPa SE 2.7 km/h 7.4 km/h 58 % 0 mm
00:28 10.8 °C 3.1 °C 1010.7 hPa ESE 1.9 km/h 3.7 km/h 59 % 0 mm
00:33 10.7 °C 3.5 °C 1010.4 hPa ESE 2.9 km/h 7.4 km/h 61 % 0 mm
00:38 10.6 °C 3.2 °C 1010.4 hPa SSE 3.2 km/h 5.6 km/h 60 % 0 mm
00:43 10.6 °C 3.8 °C 1010.4 hPa SSE 3.7 km/h 13 km/h 63 % 0 mm
00:48 10.6 °C 4.2 °C 1010.4 hPa SE 6.8 km/h 11.1 km/h 65 % 0 mm
00:53 10.4 °C 4.8 °C 1010.4 hPa SSE 8.5 km/h 16.7 km/h 68 % 0 mm
00:58 10.4 °C 5.3 °C 1010 hPa ESE 4.7 km/h 9.3 km/h 71 % 0 mm
01:03 10.3 °C 5.7 °C 1010 hPa SSE 7.7 km/h 16.7 km/h 73 % 0 mm
01:08 10.2 °C 6.1 °C 1009.7 hPa SE 4.8 km/h 9.3 km/h 76 % 0 mm
01:13 10.1 °C 6.4 °C 1009.7 hPa SE 5.8 km/h 14.5 km/h 78 % 0 mm
01:18 9.9 °C 6.3 °C 1009.4 hPa SSE 6.9 km/h 17.7 km/h 78 % 0 mm
01:23 9.9 °C 6.4 °C 1009.4 hPa SE 2.7 km/h 13 km/h 79 % 0 mm
01:28 9.8 °C 6.4 °C 1009 hPa South 6 km/h 13 km/h 79 % 0 mm
01:33 9.8 °C 6.5 °C 1009 hPa SE 9.2 km/h 16.7 km/h 80 % 0 mm
01:38 9.7 °C 6.6 °C 1009 hPa SE 13.4 km/h 16.7 km/h 81 % 0 mm
01:43 9.6 °C 6.7 °C 1008.7 hPa ESE 6.6 km/h 22.2 km/h 82 % 0 mm
01:48 9.5 °C 6.8 °C 1008.7 hPa SSE 12.1 km/h 20.4 km/h 83 % 0 mm
01:53 9.5 °C 6.9 °C 1008.4 hPa SE 14.8 km/h 20.4 km/h 84 % 0 mm
01:59 9.4 °C 7.1 °C 1008 hPa East 12.2 km/h 22.2 km/h 85 % 0 mm
02:04 9.4 °C 7.3 °C 1008 hPa South 8.7 km/h 17.7 km/h 87 % 0 mm
02:09 9.4 °C 7.5 °C 1008 hPa ESE 8.4 km/h 16.7 km/h 88 % 0 mm
02:14 9.3 °C 7.4 °C 1007.7 hPa SSE 12.4 km/h 20.4 km/h 88 % 0 mm
02:19 9.3 °C 7.6 °C 1007.7 hPa SSE 6.3 km/h 9.3 km/h 89 % 0 mm
02:24 9.3 °C 7.8 °C 1007.7 hPa South 15 km/h 24.1 km/h 90 % 0 mm
02:29 9.3 °C 7.8 °C 1007.3 hPa SE 14.5 km/h 27.8 km/h 90 % 0 mm
02:34 9.3 °C 7.9 °C 1007 hPa ESE 16.3 km/h 27.8 km/h 91 % 0 mm
02:39 9.3 °C 7.9 °C 1007 hPa ESE 10.6 km/h 22.2 km/h 91 % 0 mm
02:44 9.3 °C 8.1 °C 1007 hPa SSE 10 km/h 19.3 km/h 92 % 0 mm
02:49 9.3 °C 8.1 °C 1006.7 hPa East 7.6 km/h 18.5 km/h 92 % 0 mm
02:54 9.4 °C 8.2 °C 1007 hPa East 13.5 km/h 25.9 km/h 92 % 0 mm
02:59 9.4 °C 8.3 °C 1006.7 hPa SE 10.1 km/h 20.4 km/h 93 % 0 mm
03:04 9.4 °C 8.3 °C 1006.3 hPa SSE 14.5 km/h 27.8 km/h 93 % 0 mm
03:05 9.4 °C 8.3 °C 1006.3 hPa SE 6.8 km/h 18.5 km/h 93 % 0 mm
03:10 9.4 °C 8.3 °C 1006.7 hPa East 13.2 km/h 18.5 km/h 93 % 0 mm
03:15 9.4 °C 8.4 °C 1006 hPa SSE 13.2 km/h 24.1 km/h 94 % 0 mm
03:20 9.4 °C 8.4 °C 1006.3 hPa SE 13.4 km/h 20.9 km/h 94 % 0 mm
03:25 9.4 °C 8.4 °C 1006 hPa SSE 11.9 km/h 24.1 km/h 94 % 0 mm
03:30 9.4 °C 8.4 °C 1006.7 hPa SE 11.4 km/h 22.5 km/h 94 % 0 mm
03:35 9.4 °C 8.4 °C 1006.3 hPa SSE 6.8 km/h 16.7 km/h 94 % 0 mm
03:40 9.4 °C 8.4 °C 1006 hPa SE 10.8 km/h 20.4 km/h 94 % 0 mm
03:45 9.4 °C 8.4 °C 1006 hPa SSE 9.3 km/h 24.1 km/h 94 % 0 mm
03:50 9.3 °C 8.4 °C 1005.6 hPa SSE 11.7 km/h 20.4 km/h 94 % 0 mm
03:55 9.3 °C 8.4 °C 1005.6 hPa ESE 16.4 km/h 31.5 km/h 94 % 0 mm
04:00 9.2 °C 8.3 °C 1005.3 hPa SSE 14.5 km/h 27.8 km/h 94 % 0 mm
04:05 9.2 °C 8.3 °C 1005.3 hPa SSE 9.2 km/h 24.1 km/h 94 % 0 mm
04:10 9.2 °C 8.3 °C 1005.3 hPa ESE 8.9 km/h 13 km/h 94 % 0 mm
04:15 9.2 °C 8.4 °C 1005 hPa ESE 12.4 km/h 18.5 km/h 95 % 0 mm
04:20 9.2 °C 8.4 °C 1005 hPa SE 7.6 km/h 11.1 km/h 95 % 0 mm
04:25 9.3 °C 8.5 °C 1004.6 hPa SSE 12.7 km/h 25.9 km/h 95 % 0 mm
04:30 9.3 °C 8.6 °C 1004.3 hPa East 9.2 km/h 13 km/h 95 % 0 mm
04:35 9.4 °C 8.8 °C 1004.3 hPa SE 12.1 km/h 31.5 km/h 96 % 0 mm
04:40 9.6 °C 8.9 °C 1003.6 hPa SE 12.9 km/h 20.9 km/h 96 % 0 mm
04:45 9.7 °C 9.1 °C 1003.9 hPa East 11.3 km/h 16.7 km/h 96 % 0 mm
04:50 9.7 °C 9.1 °C 1003.6 hPa SE 7.9 km/h 22.2 km/h 96 % 0 mm
04:55 9.8 °C 9.2 °C 1003.3 hPa ESE 11.9 km/h 24.1 km/h 96 % 0 mm
05:00 9.8 °C 9.2 °C 1003.3 hPa ENE 7.4 km/h 20.4 km/h 96 % 0 mm
05:05 9.9 °C 9.3 °C 1003.3 hPa SSE 18.2 km/h 27.8 km/h 96 % 0 mm
05:10 10 °C 9.4 °C 1003.6 hPa South 5.5 km/h 16.7 km/h 96 % 0 mm
05:15 10.1 °C 9.4 °C 1004.6 hPa SW 6.3 km/h 13 km/h 96 % 0 mm
05:19 10.1 °C 9.5 °C 1004.3 hPa WNW 2.9 km/h 7.4 km/h 96 % 0 mm
05:24 10.2 °C 9.6 °C 1004.3 hPa WSW 2.9 km/h 5.6 km/h 96 % 0.25 mm
05:29 10.1 °C 9.5 °C 1004.3 hPa NNE 9.3 km/h 13 km/h 96 % 0.25 mm
05:34 9.8 °C 9.2 °C 1004.6 hPa West 0.2 km/h 5.6 km/h 96 % 0.25 mm
05:39 9.7 °C 9.1 °C 1004.3 hPa ENE 3.7 km/h 9.3 km/h 96 % 0.25 mm
05:44 9.6 °C 8.9 °C 1004.3 hPa SW 1.8 km/h 5.6 km/h 96 % 0.25 mm
05:49 9.5 °C 8.9 °C 1004.3 hPa South 1.4 km/h 5.6 km/h 96 % 0.25 mm
05:54 9.5 °C 8.9 °C 1004.3 hPa South 1.9 km/h 3.7 km/h 96 % 0.25 mm
05:59 9.4 °C 8.8 °C 1004.3 hPa ESE 3.1 km/h 5.6 km/h 96 % 0.25 mm
06:04 9.4 °C 8.8 °C 1003.9 hPa ESE 1.6 km/h 1.9 km/h 96 % 0.25 mm
06:09 9.4 °C 8.8 °C 1003.9 hPa NE 2.3 km/h 3.7 km/h 96 % 0.25 mm
06:14 9.4 °C 8.8 °C 1003.9 hPa NE 4.3 km/h 5.6 km/h 96 % 0.25 mm
06:19 9.4 °C 8.8 °C 1003.6 hPa NNE 1.1 km/h 3.7 km/h 96 % 0.25 mm
06:24 9.1 °C 8.5 °C 1003.6 hPa ENE 6 km/h 11.1 km/h 96 % 0 mm
06:29 9.1 °C 8.4 °C 1003.6 hPa ENE 6 km/h 11.1 km/h 96 % 0 mm
06:35 9 °C 8.4 °C 1003.3 hPa ENE 4.8 km/h 11.1 km/h 96 % 0 mm
06:40 8.8 °C 8.2 °C 1003.3 hPa ENE 1.3 km/h 5.6 km/h 96 % 0.25 mm
06:45 8.9 °C 8.3 °C 1002.9 hPa ENE 2.1 km/h 5.6 km/h 96 % 0.25 mm
06:47 8.9 °C 8.3 °C 1003.3 hPa NE 6.3 km/h 7.4 km/h 96 % 0.25 mm
06:52 9 °C 8.4 °C 1002.9 hPa ENE 4.3 km/h 11.1 km/h 96 % 0.25 mm
06:57 9 °C 8.6 °C 1002.9 hPa ENE 2.9 km/h 7.4 km/h 97 % 0.25 mm
07:02 9 °C 8.4 °C 1002.9 hPa ENE 1.6 km/h 11.3 km/h 96 % 0 mm
07:07 8.9 °C 8.3 °C 1002.9 hPa ENE 1.6 km/h 4.8 km/h 96 % 0 mm
07:12 8.9 °C 8.5 °C 1002.9 hPa ENE 1.6 km/h 6.4 km/h 97 % 0 mm
07:17 8.9 °C 8.3 °C 1002.9 hPa Calm   3.2 km/h 96 % 0 mm
07:22 9 °C 8.6 °C 1002.9 hPa Calm   1.6 km/h 97 % 0 mm
07:27 9.1 °C 8.7 °C 1002.6 hPa East 1.6 km/h 3.2 km/h 97 % 0 mm
07:32 9.2 °C 8.8 °C 1002.6 hPa East 1.6 km/h 8 km/h 97 % 0 mm
07:37 9.4 °C 9 °C 1002.6 hPa East 1.6 km/h 4.8 km/h 97 % 0 mm
07:42 9.7 °C 9.2 °C 1002.6 hPa SE 1.6 km/h 6.4 km/h 97 % 0 mm
07:47 10.2 °C 9.7 °C 1002.3 hPa SE 3.2 km/h 6.4 km/h 97 % 0 mm
07:52 10.4 °C 10.1 °C 1002.6 hPa Calm   4.8 km/h 98 % 0 mm
07:57 10.7 °C 10.4 °C 1002.3 hPa SW 0.3 km/h 5.6 km/h 98 % 0 mm
08:02 10.9 °C 10.6 °C 1002.3 hPa SSW 1.6 km/h 4.8 km/h 98 % 0 mm
08:07 11.1 °C 10.8 °C 1002.3 hPa Calm   3.2 km/h 98 % 0 mm
08:12 11.2 °C 10.9 °C 1002.3 hPa Calm   9.7 km/h 98 % 0 mm
08:17 11.3 °C 11 °C 1002.3 hPa Calm   4.8 km/h 98 % 0 mm
08:22 11.4 °C 11.1 °C 1002.3 hPa Calm   4.8 km/h 98 % 0 mm
08:27 11.4 °C 11 °C 1001.9 hPa SSE 0.3 km/h 1.9 km/h 97 % 0 mm
08:32 11.4 °C 11 °C 1001.9 hPa Calm   3.7 km/h 97 % 0 mm
08:37 11.2 °C 10.9 °C 1001.9 hPa NE 3.9 km/h 11.1 km/h 98 % 0 mm
08:42 10.6 °C 10.2 °C 1001.9 hPa NE 4.8 km/h 12.9 km/h 97 % 0 mm
08:47 9.7 °C 9.2 °C 1002.3 hPa NE 8 km/h 12.9 km/h 96 % 0 mm
08:52 8.7 °C 7.9 °C 1001.9 hPa ENE 4.8 km/h 12.9 km/h 95 % 0 mm
08:57 8 °C 7.2 °C 1001.9 hPa ESE 8.9 km/h 14.8 km/h 95 % 0.25 mm
09:02 7.7 °C 7.1 °C 1001.9 hPa East 6.1 km/h 9.3 km/h 96 % 0.25 mm
09:07 7.5 °C 6.9 °C 1001.9 hPa East 7.9 km/h 14.8 km/h 96 % 0.25 mm
09:12 7.3 °C 6.7 °C 1001.9 hPa East 9.7 km/h 13 km/h 96 % 0.25 mm
09:17 7.2 °C 6.6 °C 1001.9 hPa East 9.8 km/h 14.8 km/h 96 % 0.25 mm
09:22 7.1 °C 6.5 °C 1001.6 hPa East 6.6 km/h 11.1 km/h 96 % 0.25 mm
09:27 6.9 °C 6.3 °C 1001.6 hPa ENE 9.2 km/h 13 km/h 96 % 0.25 mm
09:32 6.8 °C 6.2 °C 1001.6 hPa East 8.4 km/h 11.1 km/h 96 % 0.25 mm
09:37 6.8 °C 6.2 °C 1001.6 hPa East 9.2 km/h 13 km/h 96 % 0.25 mm
09:42 6.8 °C 6.3 °C 1001.2 hPa East 10.6 km/h 13 km/h 97 % 0 mm
09:47 6.8 °C 6.3 °C 1001.2 hPa East 7.7 km/h 11.1 km/h 97 % 0 mm
09:52 6.8 °C 6.3 °C 1001.2 hPa East 8.7 km/h 13 km/h 97 % 0 mm
09:58 6.7 °C 6.3 °C 1001.2 hPa East 10.5 km/h 13 km/h 97 % 0 mm
10:03 6.6 °C 6.2 °C 1001.2 hPa ENE 8 km/h 11.3 km/h 97 % 0 mm
10:08 6.6 °C 6.2 °C 1001.2 hPa East 7.2 km/h 13 km/h 97 % 0 mm
10:13 6.6 °C 6.2 °C 1001.2 hPa East 6.4 km/h 9.3 km/h 97 % 0 mm
10:18 6.6 °C 6.1 °C 1001.2 hPa East 7.4 km/h 9.3 km/h 97 % 0 mm
10:23 6.6 °C 6.2 °C 1001.2 hPa East 10.1 km/h 12.9 km/h 97 % 0 mm
10:28 6.7 °C 6.2 °C 1001.2 hPa East 7.4 km/h 9.7 km/h 97 % 0 mm
10:33 6.7 °C 6.2 °C 1001.2 hPa East 7.6 km/h 9.3 km/h 97 % 0.25 mm
10:38 6.6 °C 6.2 °C 1001.2 hPa East 6.8 km/h 9.3 km/h 97 % 0.25 mm
10:43 6.6 °C 6.1 °C 1001.2 hPa East 7.2 km/h 11.3 km/h 97 % 0.25 mm
10:48 6.6 °C 6.1 °C 1001.2 hPa East 6.4 km/h 9.3 km/h 97 % 0.25 mm
10:53 6.6 °C 6.1 °C 1001.2 hPa East 8.4 km/h 9.7 km/h 97 % 0.25 mm
10:58 6.6 °C 6.1 °C 1001.2 hPa East 5.8 km/h 9.3 km/h 97 % 0.25 mm
11:03 6.5 °C 6.1 °C 1001.2 hPa East 7.6 km/h 11.3 km/h 97 % 0.25 mm
11:08 6.4 °C 6 °C 1001.2 hPa ENE 6.8 km/h 11.1 km/h 97 % 0.25 mm
11:14 6.4 °C 6 °C 1001.2 hPa ENE 6.4 km/h 9.7 km/h 97 % 0.25 mm
11:19 6.4 °C 6 °C 1001.2 hPa East 6 km/h 9.7 km/h 97 % 0.25 mm
11:23 6.5 °C 6.1 °C 1000.9 hPa East 9.2 km/h 14.8 km/h 97 % 0.25 mm
11:28 6.5 °C 6.1 °C 1000.9 hPa East 8 km/h 9.3 km/h 97 % 0.25 mm
11:33 6.6 °C 6.1 °C 1000.9 hPa East 5.5 km/h 7.4 km/h 97 % 0 mm
11:38 6.7 °C 6.2 °C 1000.9 hPa East 8.7 km/h 11.1 km/h 97 % 0 mm
11:43 6.6 °C 6.2 °C 1000.9 hPa East 9.3 km/h 13 km/h 97 % 0 mm
11:48 6.6 °C 6.1 °C 1000.9 hPa East 9.8 km/h 14.8 km/h 97 % 0 mm
11:53 6.6 °C 6.1 °C 1000.9 hPa East 10.9 km/h 14.8 km/h 97 % 0 mm
11:58 6.6 °C 6.1 °C 1000.9 hPa East 9.3 km/h 13 km/h 97 % 0 mm
12:03 6.6 °C 6.1 °C 1000.6 hPa East 5.5 km/h 14.8 km/h 97 % 0 mm
12:08 6.6 °C 6.1 °C 1000.6 hPa ENE 7.9 km/h 13 km/h 97 % 0 mm
12:13 6.6 °C 6.1 °C 1000.6 hPa East 9.2 km/h 14.8 km/h 97 % 0 mm
12:18 6.6 °C 6.1 °C 1000.6 hPa ENE 8 km/h 13 km/h 97 % 0 mm
12:24 6.5 °C 6.1 °C 1000.6 hPa ENE 6.9 km/h 16.7 km/h 97 % 0 mm
12:29 6.5 °C 6.1 °C 1000.6 hPa ENE 7.7 km/h 9.3 km/h 97 % 0 mm
12:34 6.5 °C 6.1 °C 1000.6 hPa ENE 8.5 km/h 11.1 km/h 97 % 0 mm
12:39 6.4 °C 6 °C 1000.6 hPa ENE 5.8 km/h 9.3 km/h 97 % 0 mm
12:44 6.3 °C 5.9 °C 1000.6 hPa ENE 10 km/h 17.7 km/h 97 % 0 mm
12:49 6.3 °C 5.8 °C 1000.6 hPa ENE 13.5 km/h 18.5 km/h 97 % 0.25 mm
12:54 6.3 °C 5.8 °C 1000.2 hPa East 15.6 km/h 22.5 km/h 97 % 0.25 mm
12:59 6.3 °C 5.9 °C 1000.2 hPa NE 16.1 km/h 22.5 km/h 97 % 0.25 mm
13:04 6.3 °C 6 °C 1000.6 hPa ENE 14.3 km/h 25.9 km/h 98 % 0.25 mm
13:09 6.2 °C 5.9 °C 1000.6 hPa East 18 km/h 24.1 km/h 98 % 0.25 mm
13:14 6.2 °C 5.8 °C 1000.6 hPa ENE 17.2 km/h 25.9 km/h 97 % 0.25 mm
13:19 6.3 °C 6 °C 1000.6 hPa ENE 19 km/h 25.7 km/h 98 % 0.25 mm
13:24 6.2 °C 5.7 °C 1000.9 hPa East 16.9 km/h 22.2 km/h 97 % 0.25 mm
13:29 6.1 °C 5.7 °C 1000.9 hPa ENE 17.2 km/h 25.9 km/h 97 % 0.25 mm
13:35 6.1 °C 5.8 °C 1001.2 hPa ENE 15.4 km/h 22.2 km/h 98 % 0.25 mm
13:40 6 °C 5.7 °C 1001.2 hPa ENE 13.4 km/h 18.5 km/h 98 % 0.25 mm
13:45 5.9 °C 5.7 °C 1001.2 hPa NE 15.3 km/h 20.4 km/h 98 % 0.25 mm
13:50 5.9 °C 5.5 °C 1001.2 hPa ENE 11.6 km/h 18.5 km/h 97 % 0 mm
13:55 5.9 °C 5.5 °C 1001.6 hPa ENE 12.9 km/h 18.5 km/h 97 % 0 mm
14:00 5.9 °C 5.4 °C 1001.6 hPa East 12.6 km/h 16.7 km/h 97 % 0 mm
14:05 5.9 °C 5.4 °C 1001.6 hPa ENE 14.2 km/h 18.5 km/h 97 % 0 mm
14:10 5.9 °C 5.5 °C 1001.6 hPa East 12.9 km/h 16.7 km/h 97 % 0 mm
14:15 5.9 °C 5.7 °C 1001.2 hPa ENE 11.6 km/h 20.9 km/h 98 % 0 mm
14:20 5.9 °C 5.7 °C 1001.6 hPa East 12.9 km/h 16.7 km/h 98 % 0 mm
14:25 6.1 °C 5.8 °C 1001.6 hPa ENE 10.5 km/h 14.8 km/h 98 % 0 mm
14:30 6.1 °C 5.8 °C 1001.6 hPa East 9.8 km/h 13 km/h 98 % 0 mm
14:35 6.3 °C 6 °C 1001.6 hPa East 8.2 km/h 11.1 km/h 98 % 0.25 mm
14:40 6.3 °C 6.1 °C 1001.2 hPa ENE 9.3 km/h 16.7 km/h 98 % 0.25 mm
14:45 6.4 °C 6.2 °C 1001.2 hPa ENE 9 km/h 13 km/h 98 % 0.25 mm
14:50 6.4 °C 6.2 °C 1001.6 hPa ENE 7.6 km/h 11.3 km/h 98 % 0.25 mm
14:55 6.5 °C 6.2 °C 1001.6 hPa East 8.5 km/h 11.1 km/h 98 % 0.25 mm
15:00 6.4 °C 6.2 °C 1001.6 hPa East 9 km/h 11.3 km/h 98 % 0.25 mm
15:05 6.4 °C 6.2 °C 1001.6 hPa ENE 8.4 km/h 11.1 km/h 98 % 0.25 mm
15:10 6.4 °C 6.2 °C 1001.6 hPa East 8.2 km/h 9.7 km/h 98 % 0.25 mm
15:15 6.6 °C 6.3 °C 1001.2 hPa East 9.2 km/h 13 km/h 98 % 0.25 mm
15:20 6.7 °C 6.4 °C 1001.2 hPa ENE 7.7 km/h 11.1 km/h 98 % 0.25 mm
15:25 6.8 °C 6.6 °C 1001.6 hPa East 8.4 km/h 11.1 km/h 98 % 0.25 mm
15:30 6.9 °C 6.6 °C 1001.6 hPa ENE 6.6 km/h 8 km/h 98 % 0.25 mm
15:35 7 °C 6.7 °C 1001.2 hPa East 8.7 km/h 9.7 km/h 98 % 0 mm
15:40 7.1 °C 6.8 °C 1001.6 hPa East 7.6 km/h 11.1 km/h 98 % 0 mm
15:45 7.3 °C 7 °C 1001.2 hPa East 7.7 km/h 11.1 km/h 98 % 0 mm
15:50 7.3 °C 7.1 °C 1001.2 hPa East 7.4 km/h 9.7 km/h 98 % 0 mm
15:55 7.3 °C 7 °C 1001.2 hPa East 5.3 km/h 7.4 km/h 98 % 0 mm
16:00 7.2 °C 6.9 °C 1001.6 hPa East 5.1 km/h 7.4 km/h 98 % 0 mm
16:06 7.2 °C 6.9 °C 1001.6 hPa East 4.7 km/h 7.4 km/h 98 % 0 mm
16:11 7.1 °C 6.8 °C 1001.6 hPa ENE 4.2 km/h 6.4 km/h 98 % 0 mm
16:16 7.1 °C 6.8 °C 1001.6 hPa ENE 4.2 km/h 5.6 km/h 98 % 0 mm
16:21 7.1 °C 6.8 °C 1001.6 hPa East 5.1 km/h 5.6 km/h 98 % 0 mm
16:26 7.2 °C 6.9 °C 1001.6 hPa ENE 4.3 km/h 6.4 km/h 98 % 0 mm
16:31 7.3 °C 7 °C 1001.6 hPa ENE 4.8 km/h 11.1 km/h 98 % 0 mm
16:36 7.4 °C 7.1 °C 1001.6 hPa ENE 7.4 km/h 11.1 km/h 98 % 0 mm
16:41 7.3 °C 7.1 °C 1001.6 hPa ENE 4 km/h 5.6 km/h 98 % 0 mm
16:46 7.3 °C 7.1 °C 1001.6 hPa East 6.6 km/h 9.7 km/h 98 % 0 mm
16:51 7.3 °C 7.1 °C 1001.6 hPa ENE 5.1 km/h 13 km/h 98 % 0 mm
16:56 7.4 °C 7.1 °C 1001.6 hPa ENE 6.1 km/h 9.3 km/h 98 % 0 mm
17:01 7.3 °C 7.1 °C 1001.6 hPa ENE 7.6 km/h 13 km/h 98 % 0 mm
17:06 7.3 °C 7.1 °C 1001.9 hPa NE 5.3 km/h 5.6 km/h 98 % 0.25 mm
17:11 7.3 °C 7.1 °C 1001.9 hPa ENE 6.6 km/h 11.1 km/h 98 % 0.25 mm
17:16 7.2 °C 6.9 °C 1001.9 hPa ENE 6.8 km/h 9.3 km/h 98 % 0.25 mm
17:21 7.2 °C 6.9 °C 1001.9 hPa ENE 8.5 km/h 13 km/h 98 % 0.25 mm
17:26 7.2 °C 6.9 °C 1001.9 hPa ENE 4.2 km/h 11.1 km/h 98 % 0.25 mm
17:31 7.2 °C 6.9 °C 1002.3 hPa East 3.1 km/h 5.6 km/h 98 % 0.25 mm
17:37 7.2 °C 6.9 °C 1001.9 hPa East 4.8 km/h 7.4 km/h 98 % 0.25 mm
17:42 7.3 °C 7 °C 1001.9 hPa East 6.4 km/h 9.7 km/h 98 % 0.25 mm
17:47 7.3 °C 7.1 °C 1002.3 hPa ENE 6.4 km/h 9.3 km/h 98 % 0.51 mm
17:52 7.3 °C 7 °C 1002.3 hPa ENE 5.5 km/h 8 km/h 98 % 0.51 mm
17:57 7.1 °C 6.8 °C 1002.3 hPa ENE 6.4 km/h 8 km/h 98 % 0.51 mm
18:02 7 °C 6.7 °C 1002.6 hPa ENE 5.1 km/h 8 km/h 98 % 0.51 mm
18:07 7 °C 6.7 °C 1002.6 hPa ENE 3.5 km/h 5.6 km/h 98 % 0.25 mm
18:12 7 °C 6.7 °C 1002.6 hPa East 4.5 km/h 5.6 km/h 98 % 0.25 mm
18:17 6.9 °C 6.7 °C 1002.9 hPa ENE 6.3 km/h 11.3 km/h 98 % 0.25 mm
18:22 6.9 °C 6.7 °C 1002.6 hPa ENE 5.6 km/h 9.3 km/h 98 % 0.25 mm
18:27 6.9 °C 6.6 °C 1002.6 hPa ENE 3.7 km/h 5.6 km/h 98 % 0.51 mm
18:32 6.8 °C 6.6 °C 1002.6 hPa East 4.2 km/h 5.6 km/h 98 % 0.51 mm
18:37 6.8 °C 6.6 °C 1002.9 hPa ENE 5.5 km/h 7.4 km/h 98 % 0.51 mm
18:42 6.8 °C 6.5 °C 1002.9 hPa ENE 5.3 km/h 7.4 km/h 98 % 0.51 mm
18:47 6.7 °C 6.4 °C 1002.9 hPa NE 4.5 km/h 8 km/h 98 % 0.25 mm
18:52 6.7 °C 6.4 °C 1002.6 hPa ENE 6.1 km/h 7.4 km/h 98 % 0.25 mm
18:57 6.7 °C 6.4 °C 1002.6 hPa ENE 5.8 km/h 11.1 km/h 98 % 0.25 mm
19:02 6.7 °C 6.4 °C 1002.6 hPa ENE 4.7 km/h 7.4 km/h 98 % 0.25 mm
19:07 6.6 °C 6.3 °C 1002.6 hPa ENE 9.7 km/h 12.9 km/h 98 % 0 mm
19:12 6.6 °C 6.3 °C 1002.6 hPa ENE 8 km/h 14.5 km/h 98 % 0 mm
19:17 6.6 °C 6.3 °C 1002.9 hPa ENE 3.2 km/h 8 km/h 98 % 0 mm
19:22 6.6 °C 6.3 °C 1002.6 hPa East 7.2 km/h 9.3 km/h 98 % 0.51 mm
19:27 6.6 °C 6.3 °C 1002.6 hPa East 4.8 km/h 9.7 km/h 98 % 0 mm
19:32 6.6 °C 6.3 °C 1002.6 hPa East 8 km/h 9.7 km/h 98 % 0 mm
19:37 6.7 °C 6.4 °C 1002.6 hPa East 9.7 km/h 12.9 km/h 98 % 0 mm
19:42 6.7 °C 6.4 °C 1002.6 hPa East 9.7 km/h 12.9 km/h 98 % 0 mm
19:47 6.7 °C 6.4 °C 1002.6 hPa East 9.7 km/h 12.9 km/h 98 % 0 mm
19:52 6.7 °C 6.4 °C 1002.6 hPa East 9.7 km/h 12.9 km/h 98 % 0 mm
19:57 6.7 °C 6.4 °C 1002.6 hPa East 9.2 km/h 11.3 km/h 98 % 0.25 mm
20:02 6.7 °C 6.4 °C 1002.9 hPa East 6.8 km/h 9.3 km/h 98 % 0.25 mm
20:08 6.7 °C 6.3 °C 1003.3 hPa ENE 4.5 km/h 5.6 km/h 97 % 0.25 mm
21:19 6.2 °C 5.8 °C 1004.6 hPa ESE 8.2 km/h 14.8 km/h 97 % 0 mm
21:24 6.2 °C 5.7 °C 1005 hPa ENE 6.1 km/h 13 km/h 97 % 0 mm
21:29 6.2 °C 5.7 °C 1005 hPa ENE 7.6 km/h 11.1 km/h 97 % 0 mm
21:34 6.2 °C 5.7 °C 1005 hPa ENE 6.1 km/h 9.3 km/h 97 % 0 mm
21:39 6.1 °C 5.7 °C 1005 hPa ENE 6.9 km/h 13 km/h 97 % 0 mm
21:44 6.1 °C 5.6 °C 1005.3 hPa ENE 2.3 km/h 5.6 km/h 97 % 0 mm
22:01 6 °C 5.6 °C 1005.3 hPa East 6.8 km/h 11.3 km/h 97 % 0 mm
22:06 5.9 °C 5.5 °C 1005.6 hPa NE 3.7 km/h 5.6 km/h 97 % 0 mm
22:11 5.9 °C 5.5 °C 1005.6 hPa NE 0.6 km/h 3.7 km/h 97 % 0 mm
22:16 5.9 °C 5.5 °C 1006 hPa NNE 5 km/h 11.1 km/h 97 % 0 mm
22:22 5.9 °C 5.5 °C 1006 hPa NNE 6.4 km/h 11.1 km/h 97 % 0 mm
22:27 5.9 °C 5.5 °C 1006.3 hPa NNE 5.8 km/h 16.1 km/h 97 % 0 mm
22:32 5.9 °C 5.4 °C 1006.7 hPa NNE 8.9 km/h 11.3 km/h 97 % 0 mm
22:37 5.9 °C 5.4 °C 1006.3 hPa NE 3.1 km/h 5.6 km/h 97 % 0 mm
22:42 5.9 °C 5.4 °C 1006 hPa NNE 3.9 km/h 5.6 km/h 97 % 0 mm
22:47 5.8 °C 5.4 °C 1006 hPa ENE 3.9 km/h 5.6 km/h 97 % 0 mm
22:52 5.8 °C 5.4 °C 1006 hPa ENE 4.7 km/h 5.6 km/h 97 % 0 mm
22:57 5.8 °C 5.4 °C 1005.6 hPa ENE 4.5 km/h 5.6 km/h 97 % 0 mm
23:02 5.8 °C 5.4 °C 1005.3 hPa East 3.5 km/h 7.4 km/h 97 % 0 mm
23:07 5.8 °C 5.4 °C 1005.6 hPa East 8 km/h 9.3 km/h 97 % 0 mm
23:12 5.9 °C 5.4 °C 1005.6 hPa East 4.2 km/h 9.3 km/h 97 % 0 mm
23:17 5.8 °C 5.4 °C 1006 hPa ENE 3.9 km/h 5.6 km/h 97 % 0 mm
23:22 5.8 °C 5.4 °C 1006 hPa ENE 2.6 km/h 5.6 km/h 97 % 0 mm
23:27 5.8 °C 5.4 °C 1006 hPa ENE 3.2 km/h 4.8 km/h 97 % 0 mm
23:32 5.9 °C 5.4 °C 1006 hPa ENE 2.9 km/h 3.7 km/h 97 % 0 mm
23:37 5.8 °C 5.4 °C 1006.3 hPa NE 4 km/h 6.4 km/h 97 % 0 mm
23:42 5.8 °C 5.4 °C 1006.3 hPa NE 2.4 km/h 5.6 km/h 97 % 0 mm
23:47 5.8 °C 5.4 °C 1006 hPa ENE 6.8 km/h 11.1 km/h 97 % 0 mm
23:52 5.8 °C 5.3 °C 1006.3 hPa ENE 0.2 km/h 3.7 km/h 97 % 0 mm
23:57 5.8 °C 5.3 °C 1006.3 hPa NE 1.6 km/h 5.6 km/h 97 % 0 mm
Crab Meadow Weather
Compliments of Weather Underground - 2.75 mb

Script developed by  Jim McMurry - jmcmurry@mwt.net Adapted for the template by  Wim van der Kuil - Leuven-Template.eu

Astronomy: The rings of Saturn are made of ice and rock.